Current | Forecast
Updated: 3:00 PM JST on June 18, 2018
Observed at Hakodate Airport, Japan
Temperature 64°F
Humidity 73%
Dew Point 55°F
Wind SE at 13 mph
Pressure 29.86 in (Steady)
Conditions Mostly Cloudy
Visibility 6.2 miles
UV 3 out of 16
Clouds (FEW) : 4000 ft
Mostly Cloudy (BKN) : 6000 ft
Yesterday's Maximum 57°F
Yesterday's Minimum 50°F approx.
Yesterday's Heating Degree Days 11 approx.
Sunrise4:01 AM JST
Sunset7:12 PM JST
Moon Rise8:48 AM JST
Moon Set10:56 PM JST
Moon PhaseMoon Phase
Waxing Crescent
Raw METARMETAR RJCH 180600Z 14011KT 9999 FEW040 BKN060 18/13 Q1011


Monday
. High: 60° F.
Tuesday
. High: 62° F.
Wednesday
. High: 59° F.
Thursday
. High: 62° F.
Friday
. High: 60° F.
Saturday
. High: 55° F.
Sunday
. High: 62° F.
Monday
. High: 57° F.

Units: English | Metric

Find the Weather for any City, State or Zipcode, or Country:

U.S. State List | Severe Weather | Tropical Storms | Ski Conditions
United States | Canada | Central America | South America | Asia | Europe | Australia | Africa | Islands

Weather Underground

© Copyright 2018
The Weather Company, LLC